Glasgow, Montana
Current Conditions -  °F | °C
As of 12:53 PM on Sunday 25 Jan 2015 (Local Time) from KGGW Reporting Station
Clear Clear  
Wind Chill: 40°   Ceiling: Unl
Heat Index: 43°   Visibility: 10mi
Dew Point: 31°   Wind: 5mph
Humidity: 62%   Direction: 240°WSW
Pressure: 29.84"   Gusts: NA
Location:  48.2°N, 106.64°W
Report Text: KGGW 251953Z AUTO 24004KT 10SM CLR 06/M01 A2984 RMK AO2 SLP124 T00611006
Loading
Personal Weather Stations






























Interactive Weather Map New forecast layout! Learn more

10-Day Weather Forecast

Advertisements
Track Severe Weather on mobile